createdAt,value
2018-04-27T00:01:42.968Z,101383.36
2018-04-27T00:04:09.208Z,101386.97
2018-04-27T00:06:35.408Z,101378.62
2018-04-27T00:09:01.569Z,101380.66
2018-04-27T00:11:27.601Z,101380.44
2018-04-27T00:13:53.726Z,101373.35
2018-04-27T00:16:20.157Z,101361.36
2018-04-27T00:18:46.229Z,101367.73
2018-04-27T00:21:12.333Z,101357.27
2018-04-27T00:23:38.539Z,101361.08
2018-04-27T00:26:04.906Z,101354.34
2018-04-27T00:28:31.108Z,101345.52
2018-04-27T00:30:57.227Z,101342.55
2018-04-27T00:33:23.387Z,101331.83
2018-04-27T00:35:49.470Z,101330.56
2018-04-27T00:38:15.567Z,101325.23
2018-04-27T00:40:41.692Z,101330.70
2018-04-27T00:43:07.783Z,101327.42
2018-04-27T00:45:33.879Z,101320.89
2018-04-27T00:47:59.946Z,101317.02
2018-04-27T00:50:26.631Z,101317.45
2018-04-27T00:53:04.960Z,101311.34
2018-04-27T08:08:10.774Z,101083.98
2018-04-27T08:10:36.912Z,101087.85
2018-04-27T08:13:03.352Z,101085.19
2018-04-27T08:15:29.419Z,101082.41
2018-04-27T08:17:55.427Z,101078.91
2018-04-27T08:20:27.476Z,101078.72
2018-04-27T08:22:53.539Z,101078.73
2018-04-27T08:25:19.692Z,101075.47
2018-04-27T08:27:45.775Z,101070.95
2018-04-27T08:30:11.887Z,101064.88
2018-04-27T08:32:37.867Z,101067.81
2018-04-27T08:35:03.912Z,101064.95
2018-04-27T08:37:30.041Z,101064.53
2018-04-27T08:39:56.100Z,101069.06
2018-04-27T08:42:22.365Z,101060.42
2018-04-27T08:44:48.458Z,101063.11
2018-04-27T08:47:14.498Z,101058.04
2018-04-27T08:49:40.554Z,101058.46
2018-04-27T08:52:06.861Z,101054.88
2018-04-27T08:54:33.029Z,101057.48
2018-04-27T08:56:59.220Z,101055.97
2018-04-27T08:59:25.333Z,101062.50
2018-04-27T09:01:51.409Z,101052.41
2018-04-27T09:04:18.309Z,101053.26
2018-04-27T09:06:44.499Z,101056.46
2018-04-27T09:09:10.554Z,101056.90
2018-04-27T09:11:36.827Z,101058.91
2018-04-27T09:14:02.930Z,101053.88
2018-04-27T09:16:29.036Z,101054.21
2018-04-27T09:18:55.160Z,101051.34
2018-04-27T09:21:21.341Z,101045.35
2018-04-27T09:23:47.410Z,101039.94
2018-04-27T09:26:13.444Z,101041.50
2018-04-27T09:28:39.500Z,101035.20
2018-04-27T09:31:05.650Z,101046.22
2018-04-27T09:33:31.724Z,101048.66
2018-04-27T09:35:57.860Z,101047.64
2018-04-27T09:38:24.009Z,101045.59
2018-04-27T09:40:50.111Z,101035.16
2018-04-27T09:43:16.266Z,101034.16
2018-04-27T09:45:42.321Z,101034.62
2018-04-27T09:48:08.414Z,101025.94
2018-04-27T09:50:34.587Z,101019.09
2018-04-27T09:53:00.730Z,101016.92
2018-04-27T09:55:26.842Z,101015.32
2018-04-27T09:57:52.978Z,101014.13
2018-04-27T10:00:19.202Z,101009.59
2018-04-27T10:02:45.439Z,100997.20
2018-04-27T10:05:11.560Z,101004.34
2018-04-27T10:07:37.591Z,101004.65
2018-04-27T10:10:03.612Z,100998.57
2018-04-27T10:12:29.744Z,100992.47
2018-04-27T10:14:55.845Z,100988.39
2018-04-27T10:17:21.849Z,100991.28
2018-04-27T10:19:47.885Z,100981.70
2018-04-27T10:22:13.984Z,100981.80
2018-04-27T10:24:40.032Z,100979.45
2018-04-27T10:27:06.094Z,100974.78
2018-04-27T10:29:32.184Z,100968.56
2018-04-27T10:31:58.208Z,100961.19
2018-04-27T10:34:24.286Z,100950.61
2018-04-27T10:36:50.351Z,100943.34
2018-04-27T10:39:16.561Z,100950.39
2018-04-27T10:41:42.648Z,100942.56
2018-04-27T10:44:08.721Z,100938.65
2018-04-27T10:46:34.882Z,100926.16
2018-04-27T10:49:01.087Z,100921.58
2018-04-27T10:51:27.149Z,100925.98
2018-04-27T10:53:53.224Z,100911.44
2018-04-27T10:56:19.329Z,100899.00
2018-04-27T10:58:45.456Z,100902.08
2018-04-27T11:01:11.674Z,100897.22
2018-04-27T11:03:37.729Z,100899.44
2018-04-27T11:06:03.776Z,100896.80
2018-04-27T11:08:29.841Z,100896.57
2018-04-27T11:10:55.938Z,100874.80
2018-04-27T11:13:21.924Z,100874.59
2018-04-27T11:15:47.962Z,100872.23
2018-04-27T11:18:14.036Z,100870.58
2018-04-27T11:20:40.092Z,100866.89
2018-04-27T11:23:06.202Z,100863.19
2018-04-27T11:25:34.168Z,100857.47
2018-04-27T11:28:00.216Z,100855.81
2018-04-27T11:30:26.235Z,100848.31
2018-04-27T11:32:52.285Z,100845.52
2018-04-27T11:35:18.483Z,100850.00
2018-04-27T11:37:44.509Z,100844.05
2018-04-27T11:40:10.522Z,100848.45
2018-04-27T11:42:36.569Z,100846.10
2018-04-27T11:45:02.782Z,100845.73
2018-04-27T11:47:28.951Z,100851.88
2018-04-27T11:49:55.011Z,100853.33
2018-04-27T11:52:21.262Z,100854.16
2018-04-27T11:54:47.373Z,100850.66
2018-04-27T11:57:13.553Z,100848.44
2018-04-27T11:59:39.659Z,100857.36
2018-04-27T12:02:08.784Z,100861.72
2018-04-27T12:04:34.936Z,100860.37
2018-04-27T12:07:01.005Z,100863.25
2018-04-27T12:09:27.044Z,100864.25
2018-04-27T12:11:53.237Z,100865.89
2018-04-27T12:14:20.321Z,100863.81
2018-04-27T12:16:46.452Z,100854.92
2018-04-27T12:19:12.523Z,100850.27
2018-04-27T12:21:38.657Z,100843.70
2018-04-27T12:24:04.795Z,100841.06
2018-04-27T12:26:31.325Z,100827.55
2018-04-27T12:28:57.380Z,100833.08
2018-04-27T12:31:23.606Z,100825.11
2018-04-27T12:33:49.633Z,100820.29
2018-04-27T12:36:15.688Z,100828.84
2018-04-27T12:38:41.762Z,100839.06
2018-04-27T12:41:07.830Z,100836.11
2018-04-27T12:43:33.846Z,100840.37
2018-04-27T12:45:59.965Z,100836.65
2018-04-27T12:48:26.052Z,100839.25
2018-04-27T12:50:52.125Z,100832.24
2018-04-27T12:53:18.139Z,100830.71
2018-04-27T12:55:44.165Z,100825.93
2018-04-27T12:58:10.219Z,100827.88
2018-04-27T13:00:36.293Z,100827.78
2018-04-27T13:03:02.312Z,100823.56
2018-04-27T13:05:28.404Z,100826.43
2018-04-27T13:07:54.504Z,100822.97
2018-04-27T13:10:21.244Z,100810.84
2018-04-27T13:12:47.369Z,100809.91
2018-04-27T13:15:13.453Z,100804.76
2018-04-27T13:17:39.537Z,100801.97
2018-04-27T13:20:05.709Z,100793.83
2018-04-27T13:22:31.717Z,100788.33
2018-04-27T13:24:57.795Z,100774.64
2018-04-27T13:27:23.856Z,100767.04
2018-04-27T13:29:49.870Z,100758.18
2018-04-27T13:32:15.905Z,100752.75
2018-04-27T13:34:41.946Z,100741.44
2018-04-27T13:37:07.983Z,100741.11
2018-04-27T13:39:34.009Z,100731.89
2018-04-27T13:42:00.051Z,100741.25
2018-04-27T13:44:26.113Z,100751.63
2018-04-27T13:46:52.157Z,100758.09
2018-04-27T13:49:18.227Z,100739.92
2018-04-27T13:51:44.312Z,100738.94
2018-04-27T13:54:10.340Z,100737.69
2018-04-27T13:56:36.379Z,100735.11
2018-04-27T13:59:02.499Z,100736.96
2018-04-27T14:01:28.573Z,100747.55
2018-04-27T14:03:54.632Z,100749.22
2018-04-27T14:06:20.683Z,100738.14
2018-04-27T14:08:46.758Z,100737.67
2018-04-27T14:11:12.990Z,100737.94
2018-04-27T14:13:39.112Z,100724.81
2018-04-27T14:16:05.262Z,100725.37
2018-04-27T14:18:31.331Z,100723.25
2018-04-27T14:20:57.394Z,100726.89
2018-04-27T14:23:23.473Z,100728.97
2018-04-27T14:25:49.595Z,100723.42
2018-04-27T14:28:15.666Z,100722.95
2018-04-27T14:30:41.741Z,100718.53
2018-04-27T14:33:07.829Z,100705.32
2018-04-27T14:35:33.916Z,100703.36
2018-04-27T14:38:00.047Z,100697.25
2018-04-27T14:40:26.098Z,100692.65
2018-04-27T14:42:52.180Z,100688.67
2018-04-27T14:45:18.225Z,100679.56
2018-04-27T14:47:44.461Z,100683.63
2018-04-27T14:50:10.680Z,100680.27
2018-04-27T14:52:36.982Z,100674.63
2018-04-27T14:55:03.059Z,100665.34
2018-04-27T14:57:29.221Z,100654.70
2018-04-27T14:59:55.387Z,100647.63
2018-04-27T15:02:21.437Z,100637.23
2018-04-27T15:04:47.556Z,100637.30
2018-04-27T15:07:13.656Z,100635.78
2018-04-27T15:09:39.753Z,100644.83
2018-04-27T15:12:05.807Z,100640.14
2018-04-27T15:14:31.853Z,100638.27
2018-04-27T15:16:57.853Z,100623.11
2018-04-27T15:19:23.908Z,100621.98
2018-04-27T15:21:50.147Z,100612.42
2018-04-27T15:24:16.240Z,100613.02
2018-04-27T15:26:42.242Z,100603.01
2018-04-27T15:29:08.298Z,100606.13
2018-04-27T15:31:34.354Z,100605.61
2018-04-27T15:34:00.392Z,100602.70
2018-04-27T15:36:26.458Z,100613.12
2018-04-27T15:38:52.505Z,100616.34
2018-04-27T15:41:18.667Z,100609.94
2018-04-27T15:43:44.999Z,100614.30
2018-04-27T15:46:11.076Z,100612.42
2018-04-27T15:48:37.248Z,100616.69
2018-04-27T15:51:03.300Z,100618.56
2018-04-27T15:53:29.386Z,100619.81
2018-04-27T15:55:55.410Z,100612.63
2018-04-27T15:58:21.469Z,100624.03
2018-04-27T16:00:47.608Z,100618.12
2018-04-27T16:03:13.752Z,100616.87
2018-04-27T16:05:39.827Z,100620.20
2018-04-27T16:08:05.903Z,100624.67
2018-04-27T16:10:31.912Z,100625.77
2018-04-27T16:13:00.731Z,100630.41
2018-04-27T16:15:26.822Z,100621.53
2018-04-27T16:17:52.907Z,100626.35
2018-04-27T16:20:18.954Z,100625.89
2018-04-27T16:22:45.263Z,100627.97
2018-04-27T16:25:11.381Z,100631.78
2018-04-27T16:27:37.448Z,100625.35
2018-04-27T16:30:03.538Z,100621.39
2018-04-27T16:32:29.579Z,100619.72
2018-04-27T16:34:55.664Z,100623.91
2018-04-27T16:37:21.796Z,100612.59
2018-04-27T16:39:47.823Z,100620.06
2018-04-27T16:42:13.852Z,100616.78
2018-04-27T16:44:39.928Z,100611.50
2018-04-27T16:47:05.994Z,100607.36
2018-04-27T16:49:32.139Z,100613.50
2018-04-27T16:51:58.224Z,100605.36
2018-04-27T16:54:24.260Z,100606.70
2018-04-27T16:56:50.326Z,100603.04
2018-04-27T16:59:16.361Z,100605.86
2018-04-27T17:01:42.417Z,100599.63
2018-04-27T17:04:08.472Z,100596.77
2018-04-27T17:06:34.520Z,100597.53
2018-04-27T17:09:00.579Z,100594.61
2018-04-27T17:11:26.767Z,100599.70
2018-04-27T17:13:52.895Z,100594.47
2018-04-27T17:16:18.975Z,100597.48
2018-04-27T17:18:45.020Z,100596.34
2018-04-27T17:21:11.183Z,100600.73
2018-04-27T17:23:37.373Z,100592.11
2018-04-27T17:26:03.590Z,100593.80
2018-04-27T17:28:29.696Z,100593.02
2018-04-27T17:30:55.752Z,100592.50
2018-04-27T17:33:21.858Z,100582.00
2018-04-27T17:35:47.959Z,100579.76
2018-04-27T17:38:14.072Z,100573.79
2018-04-27T17:40:40.216Z,100570.64
2018-04-27T17:43:06.296Z,100568.05
2018-04-27T17:45:33.113Z,100563.38
2018-04-27T17:47:59.274Z,100570.75
2018-04-27T17:50:25.419Z,100563.24
2018-04-27T17:52:51.481Z,100556.11
2018-04-27T17:55:17.659Z,100548.79
2018-04-27T17:57:43.829Z,100547.17
2018-04-27T18:00:09.993Z,100545.35
2018-04-27T18:02:36.093Z,100545.53
2018-04-27T18:05:02.224Z,100551.00
2018-04-27T18:07:28.471Z,100547.62
2018-04-27T18:09:54.514Z,100544.74
2018-04-27T18:12:20.555Z,100537.36
2018-04-27T18:14:46.704Z,100531.89
2018-04-27T18:17:12.877Z,100539.39
2018-04-27T18:19:38.917Z,100539.53
2018-04-27T18:22:05.033Z,100532.13
2018-04-27T18:24:31.159Z,100525.69
2018-04-27T18:26:57.305Z,100518.32
2018-04-27T18:29:23.481Z,100525.30
2018-04-27T18:31:49.628Z,100527.56
2018-04-27T18:34:15.664Z,100529.66
2018-04-27T18:36:41.712Z,100523.70
2018-04-27T18:39:07.933Z,100525.16
2018-04-27T18:41:34.154Z,100524.65
2018-04-27T18:44:00.570Z,100524.87
2018-04-27T18:46:26.663Z,100522.84
2018-04-27T18:48:53.381Z,100520.97
2018-04-27T18:51:19.479Z,100520.73
2018-04-27T18:53:45.680Z,100520.73
2018-04-27T18:56:14.666Z,100524.95
2018-04-27T18:58:40.793Z,100527.34
2018-04-27T19:01:06.953Z,100527.28
2018-04-27T19:03:32.979Z,100526.03
2018-04-27T19:06:02.146Z,100528.21
2018-04-27T19:08:29.758Z,100519.88
2018-04-27T19:10:56.328Z,100521.69
2018-04-27T19:13:22.365Z,100509.79
2018-04-27T19:15:48.422Z,100516.95
2018-04-27T19:18:18.556Z,100520.05
2018-04-27T19:20:44.615Z,100518.80
2018-04-27T19:23:25.649Z,100501.90
2018-04-27T19:25:51.854Z,100507.21
2018-04-27T19:28:17.981Z,100509.98
2018-04-27T19:30:44.032Z,100510.70
2018-04-27T19:33:10.168Z,100522.36
2018-04-27T19:35:36.241Z,100512.41
2018-04-27T19:38:02.246Z,100518.10
2018-04-27T19:40:28.289Z,100517.03
2018-04-27T19:42:54.480Z,100519.48
2018-04-27T19:45:20.503Z,100518.59
2018-04-27T19:47:46.516Z,100517.31
2018-04-27T19:50:12.602Z,100518.08
2018-04-27T19:52:38.702Z,100518.26
2018-04-27T19:55:04.753Z,100511.23
2018-04-27T19:57:30.874Z,100508.99
2018-04-27T19:59:56.959Z,100505.56
2018-04-27T20:02:23.174Z,100508.40
2018-04-27T20:04:49.371Z,100507.77
2018-04-27T20:07:15.437Z,100503.71
2018-04-27T20:09:41.473Z,100500.67
2018-04-27T20:12:07.572Z,100496.24
2018-04-27T20:14:35.449Z,100492.39
2018-04-27T20:17:04.124Z,100492.42
2018-04-27T20:19:33.135Z,100491.92
2018-04-27T20:22:20.950Z,100485.55
2018-04-27T20:24:47.725Z,100482.53
2018-04-27T20:27:13.891Z,100486.14
2018-04-27T20:29:40.018Z,100489.56
2018-04-27T20:32:06.041Z,100482.36
2018-04-27T20:34:32.234Z,100483.28
2018-04-27T20:36:58.326Z,100480.78
2018-04-27T20:39:24.447Z,100486.56
2018-04-27T20:41:50.888Z,100472.47
2018-04-27T20:44:16.971Z,100472.55
2018-04-27T20:46:43.771Z,100472.41
2018-04-27T20:49:09.810Z,100476.09
2018-04-27T20:51:35.889Z,100475.23
2018-04-27T20:54:01.972Z,100474.40
2018-04-27T20:56:40.956Z,100476.42
2018-04-27T20:59:07.081Z,100474.73
2018-04-27T21:01:33.267Z,100474.16
2018-04-27T21:03:59.443Z,100475.00
2018-04-27T21:06:25.633Z,100475.83
2018-04-27T21:08:51.672Z,100487.57
2018-04-27T21:11:17.735Z,100493.53
2018-04-27T21:13:43.873Z,100495.79
2018-04-27T21:16:10.079Z,100491.17
2018-04-27T21:18:36.201Z,100501.54
2018-04-27T21:21:02.305Z,100499.59
2018-04-27T21:23:28.409Z,100494.94
2018-04-27T21:25:54.499Z,100490.41
2018-04-27T21:28:23.467Z,100479.97
2018-04-27T21:30:49.588Z,100473.03
2018-04-27T21:33:15.671Z,100482.16
2018-04-27T21:35:51.712Z,100483.00
2018-04-27T21:41:32.504Z,100481.52
2018-04-27T21:54:38.172Z,100489.89
2018-04-27T21:57:08.264Z,100500.08
2018-04-27T21:59:37.077Z,100499.34
2018-04-27T22:02:04.151Z,100490.58
2018-04-27T22:04:30.229Z,100487.67
2018-04-27T22:06:56.333Z,100486.75
2018-04-27T22:09:22.392Z,100497.55
2018-04-27T22:11:48.474Z,100494.45
2018-04-27T22:14:18.522Z,100493.53
2018-04-27T22:16:44.671Z,100480.91
2018-04-27T22:19:13.654Z,100480.81
2018-04-27T22:21:40.571Z,100489.98
2018-04-27T22:24:10.385Z,100491.33
2018-04-27T22:26:40.337Z,100484.81
2018-04-27T22:29:18.627Z,100488.48
2018-04-27T22:31:44.742Z,100482.97
2018-04-27T22:34:10.927Z,100481.55
2018-04-27T22:36:37.097Z,100476.96
2018-04-27T22:42:03.929Z,100489.43
2018-04-27T22:44:36.040Z,100484.75
2018-04-27T22:47:02.117Z,100481.59
2018-04-27T22:49:28.209Z,100481.27
2018-04-27T22:51:54.210Z,100482.55
2018-04-27T22:57:15.128Z,100474.13
2018-04-27T22:59:42.042Z,100486.08
2018-04-27T23:02:11.082Z,100494.52
2018-04-27T23:04:37.256Z,100482.41
2018-04-27T23:07:03.351Z,100482.91
2018-04-27T23:09:29.491Z,100485.66
2018-04-27T23:11:55.655Z,100484.41
2018-04-27T23:14:22.732Z,100480.91
2018-04-27T23:16:50.681Z,100476.64
2018-04-27T23:19:17.642Z,100476.64
2018-04-27T23:25:05.490Z,100479.93
2018-04-27T23:27:35.491Z,100481.44
2018-04-27T23:30:01.789Z,100478.52
2018-04-27T23:32:27.932Z,100482.36
2018-04-27T23:34:53.989Z,100475.75
2018-04-27T23:37:20.082Z,100478.67
2018-04-27T23:39:46.098Z,100471.49
2018-04-27T23:42:12.247Z,100463.39
2018-04-27T23:44:38.288Z,100453.62
2018-04-27T23:47:04.350Z,100461.22
2018-04-27T23:49:30.412Z,100472.58
2018-04-27T23:51:56.458Z,100482.19
2018-04-27T23:54:22.573Z,100474.58
2018-04-27T23:56:48.749Z,100479.77
2018-04-27T23:59:14.925Z,100478.59
